Time;durP1;ratioP1;P1;durP2;ratioP2;P2;SDS_P1;SDS_P2;PMS_P1;PMS_P2;Temp;Humidity;BMP_temperature;BMP_pressure;BME280_temperature;BME280_humidity;BME280_pressure;Samples;Min_cycle;Max_cycle;Signal;HPM_P1;HPM_P2
2021/09/17 00:01:43;;;;;;;1.90;1.70;;;;;;;;;;4500507;28;20053;-63
2021/09/17 00:03:53;;;;;;;2.80;1.60;;;;;;;;;;4512114;28;37791;-63
2021/09/17 00:06:04;;;;;;;1.97;1.60;;;;;;;;;;4511734;28;20095;-62
2021/09/17 00:08:14;;;;;;;1.73;1.57;;;;;;;;;;4510040;28;20038;-63
2021/09/17 00:10:24;;;;;;;1.70;1.30;;;;;;;;;;4509609;28;20037;-63
2021/09/17 00:12:35;;;;;;;2.07;1.50;;;;;;;;;;4493525;28;20022;-62
2021/09/17 00:14:46;;;;;;;1.80;1.70;;;;;;;;;;4500104;28;20687;-62
2021/09/17 00:16:56;;;;;;;1.70;1.40;;;;;;;;;;4510525;28;20101;-63
2021/09/17 00:19:06;;;;;;;2.57;1.43;;;;;;;;;;4511515;28;35343;-63
2021/09/17 00:21:17;;;;;;;1.40;1.30;;;;;;;;;;4511557;28;20034;-63
2021/09/17 00:23:27;;;;;;;2.43;1.83;;;;;;;;;;4510813;28;20382;-63
2021/09/17 00:25:38;;;;;;;1.73;1.60;;;;;;;;;;4509702;28;22891;-63
2021/09/17 00:27:48;;;;;;;1.73;1.60;;;;;;;;;;4511901;28;20021;-63
2021/09/17 00:29:58;;;;;;;2.30;1.60;;;;;;;;;;4511348;28;20056;-63
2021/09/17 00:32:09;;;;;;;1.77;1.53;;;;;;;;;;4476483;28;20034;-62
2021/09/17 00:34:19;;;;;;;1.90;1.37;;;;;;;;;;4511650;28;20022;-63
2021/09/17 00:36:30;;;;;;;3.37;1.70;;;;;;;;;;4510785;28;29394;-63
2021/09/17 00:38:40;;;;;;;1.87;1.60;;;;;;;;;;4492781;28;39469;-63
2021/09/17 00:40:50;;;;;;;2.27;2.00;;;;;;;;;;4510098;28;27533;-63
2021/09/17 00:43:01;;;;;;;3.53;2.07;;;;;;;;;;4510784;28;20046;-63
2021/09/17 00:45:12;;;;;;;2.07;1.67;;;;;;;;;;4514907;28;20140;-63
2021/09/17 00:47:23;;;;;;;2.53;1.83;;;;;;;;;;4514550;28;20026;-63
2021/09/17 00:49:33;;;;;;;2.33;1.67;;;;;;;;;;4513154;28;20069;-63
2021/09/17 00:51:45;;;;;;;1.60;1.50;;;;;;;;;;4478804;28;20023;-63
2021/09/17 00:53:55;;;;;;;2.42;1.85;;;;;;;;;;4502775;28;20033;-62
2021/09/17 00:56:05;;;;;;;2.30;1.73;;;;;;;;;;4516107;28;20036;-63
2021/09/17 00:58:16;;;;;;;2.23;1.97;;;;;;;;;;4513772;28;20101;-63
2021/09/17 01:00:26;;;;;;;3.10;1.90;;;;;;;;;;4513456;28;29603;-63
2021/09/17 01:02:37;;;;;;;2.30;1.90;;;;;;;;;;4514955;28;20121;-63
2021/09/17 01:04:47;;;;;;;3.58;1.90;;;;;;;;;;4512947;28;21014;-62
2021/09/17 01:06:58;;;;;;;3.50;2.00;;;;;;;;;;4501829;28;31695;-62
2021/09/17 01:09:09;;;;;;;3.53;2.03;;;;;;;;;;4514091;28;20168;-62
2021/09/17 01:11:19;;;;;;;3.20;1.80;;;;;;;;;;4512877;28;20930;-63
2021/09/17 01:13:30;;;;;;;2.50;1.60;;;;;;;;;;4512479;28;20033;-62
2021/09/17 01:15:40;;;;;;;2.63;1.90;;;;;;;;;;4512828;28;20052;-63
2021/09/17 01:17:50;;;;;;;2.93;2.17;;;;;;;;;;4512896;28;26006;-62
2021/09/17 01:20:03;;;;;;;1.90;1.70;;;;;;;;;;4495676;28;20030;-62
2021/09/17 01:22:14;;;;;;;1.95;1.55;;;;;;;;;;4513755;28;20045;-62
2021/09/17 01:24:24;;;;;;;2.47;1.83;;;;;;;;;;4513104;28;20021;-62
2021/09/17 01:26:35;;;;;;;1.90;1.70;;;;;;;;;;4502382;28;31708;-63
2021/09/17 01:28:45;;;;;;;2.40;1.70;;;;;;;;;;4514812;28;20061;-62
2021/09/17 01:30:56;;;;;;;2.30;1.70;;;;;;;;;;4513863;28;20099;-63
2021/09/17 01:33:06;;;;;;;2.05;1.80;;;;;;;;;;4512192;28;20022;-62
2021/09/17 01:35:19;;;;;;;4.00;1.83;;;;;;;;;;4512813;28;20978;-62
2021/09/17 01:37:29;;;;;;;2.45;1.92;;;;;;;;;;4513781;28;20042;-62
2021/09/17 01:39:39;;;;;;;2.60;2.00;;;;;;;;;;4513118;28;20581;-62
2021/09/17 01:41:50;;;;;;;4.03;2.30;;;;;;;;;;4512868;28;20041;-62
2021/09/17 01:44:00;;;;;;;2.47;1.77;;;;;;;;;;4516770;28;20157;-62
2021/09/17 01:46:11;;;;;;;3.40;1.93;;;;;;;;;;4512611;28;20022;-62
2021/09/17 01:48:21;;;;;;;2.93;1.93;;;;;;;;;;4514877;28;20026;-62
2021/09/17 01:50:32;;;;;;;2.97;2.20;;;;;;;;;;4511817;28;38198;-62
2021/09/17 01:52:42;;;;;;;2.63;2.17;;;;;;;;;;4513214;28;20030;-62
2021/09/17 01:54:53;;;;;;;3.13;2.40;;;;;;;;;;4512512;28;20053;-62
2021/09/17 01:57:04;;;;;;;2.90;2.23;;;;;;;;;;4513960;28;20042;-62
2021/09/17 01:59:15;;;;;;;2.53;1.98;;;;;;;;;;4513780;28;20022;-62
2021/09/17 02:01:26;;;;;;;3.33;2.30;;;;;;;;;;4510414;28;39929;-63
2021/09/17 02:03:37;;;;;;;3.17;2.38;;;;;;;;;;4512938;28;20026;-62
2021/09/17 02:05:47;;;;;;;3.50;2.43;;;;;;;;;;4511923;28;26682;-62
2021/09/17 02:07:58;;;;;;;3.60;2.50;;;;;;;;;;4493945;28;20026;-62
2021/09/17 02:10:09;;;;;;;3.10;2.37;;;;;;;;;;4512405;28;20081;-62
2021/09/17 02:12:20;;;;;;;3.70;2.33;;;;;;;;;;4512410;28;20108;-62
2021/09/17 02:14:31;;;;;;;2.83;2.40;;;;;;;;;;4513994;28;20549;-62
2021/09/17 02:16:41;;;;;;;3.57;2.47;;;;;;;;;;4494047;28;20085;-63
2021/09/17 02:18:51;;;;;;;2.83;2.40;;;;;;;;;;4512454;28;20033;-62
2021/09/17 02:21:02;;;;;;;2.50;2.30;;;;;;;;;;4495228;28;20022;-62
2021/09/17 02:23:15;;;;;;;2.90;2.08;;;;;;;;;;4512246;28;20496;-63
2021/09/17 02:25:25;;;;;;;3.60;2.60;;;;;;;;;;4511731;28;20973;-62
2021/09/17 02:27:36;;;;;;;2.83;2.40;;;;;;;;;;4514776;28;20037;-63
2021/09/17 02:29:46;;;;;;;3.40;2.47;;;;;;;;;;4513041;28;20495;-62
2021/09/17 02:31:57;;;;;;;3.63;2.67;;;;;;;;;;4512881;28;20025;-62
2021/09/17 02:34:07;;;;;;;5.07;3.30;;;;;;;;;;4501158;28;20041;-62
2021/09/17 02:36:18;;;;;;;5.07;3.40;;;;;;;;;;4512262;28;30772;-62
2021/09/17 02:38:28;;;;;;;5.23;3.30;;;;;;;;;;4493387;28;20034;-62
2021/09/17 02:40:38;;;;;;;5.67;3.60;;;;;;;;;;4513355;28;20017;-62
2021/09/17 02:42:49;;;;;;;7.17;4.10;;;;;;;;;;4512799;28;20041;-62
2021/09/17 02:44:59;;;;;;;6.70;4.40;;;;;;;;;;4511904;28;22952;-62
2021/09/17 02:47:11;;;;;;;5.87;3.80;;;;;;;;;;4511542;28;20036;-62
2021/09/17 02:49:21;;;;;;;7.38;4.38;;;;;;;;;;4512365;28;20028;-62
2021/09/17 02:51:32;;;;;;;6.70;4.00;;;;;;;;;;4510357;28;38006;-62
2021/09/17 02:53:42;;;;;;;6.57;3.57;;;;;;;;;;4512429;28;20033;-62
2021/09/17 02:55:53;;;;;;;7.37;4.00;;;;;;;;;;4511311;28;20089;-62
2021/09/17 02:58:03;;;;;;;6.73;3.63;;;;;;;;;;4501239;28;20041;-62
2021/09/17 03:00:14;;;;;;;7.23;3.93;;;;;;;;;;4512871;28;20371;-62
2021/09/17 03:02:25;;;;;;;6.35;3.78;;;;;;;;;;4512848;28;20042;-62
2021/09/17 03:04:35;;;;;;;7.57;4.30;;;;;;;;;;4493599;28;20026;-61
2021/09/17 03:06:46;;;;;;;6.83;3.83;;;;;;;;;;4512618;28;20104;-62
2021/09/17 03:08:56;;;;;;;8.87;4.70;;;;;;;;;;4510950;28;24412;-62
2021/09/17 03:11:07;;;;;;;7.30;4.13;;;;;;;;;;4513145;28;20029;-62
2021/09/17 03:13:17;;;;;;;7.83;4.50;;;;;;;;;;4501759;28;20037;-62
2021/09/17 03:15:28;;;;;;;7.93;4.30;;;;;;;;;;4511824;28;20473;-62
2021/09/17 03:17:38;;;;;;;6.93;4.23;;;;;;;;;;4510923;28;20180;-62
2021/09/17 03:19:49;;;;;;;7.20;4.17;;;;;;;;;;4511578;28;20113;-62
2021/09/17 03:22:00;;;;;;;5.30;3.50;;;;;;;;;;4510665;28;20034;-62
2021/09/17 03:24:11;;;;;;;5.13;3.33;;;;;;;;;;4511025;28;21142;-62
2021/09/17 03:26:21;;;;;;;6.32;3.40;;;;;;;;;;4494424;28;20102;-62
2021/09/17 03:28:32;;;;;;;5.70;3.67;;;;;;;;;;4512724;28;20101;-62
2021/09/17 03:30:42;;;;;;;5.70;3.30;;;;;;;;;;4493761;28;32778;-62
2021/09/17 03:32:53;;;;;;;5.60;3.23;;;;;;;;;;4511202;28;20039;-61
2021/09/17 03:35:04;;;;;;;4.80;3.23;;;;;;;;;;4499861;28;20081;-62
2021/09/17 03:37:14;;;;;;;4.28;3.20;;;;;;;;;;4493610;28;20030;-62
2021/09/17 03:39:24;;;;;;;4.13;3.03;;;;;;;;;;4509803;28;40602;-62
2021/09/17 03:41:35;;;;;;;4.03;2.93;;;;;;;;;;4498994;28;30106;-62
2021/09/17 03:43:46;;;;;;;4.10;2.80;;;;;;;;;;4510718;28;20041;-62
2021/09/17 03:45:56;;;;;;;3.83;3.20;;;;;;;;;;4499718;28;20022;-62
2021/09/17 03:48:11;;;;;;;4.73;2.97;;;;;;;;;;4499371;28;42248;-62
2021/09/17 03:50:22;;;;;;;4.65;3.25;;;;;;;;;;4500548;28;20108;-62
2021/09/17 03:52:32;;;;;;;5.03;3.17;;;;;;;;;;4510647;28;20637;-62
2021/09/17 03:54:43;;;;;;;4.47;3.20;;;;;;;;;;4510583;28;43718;-62
2021/09/17 03:56:55;;;;;;;4.03;2.83;;;;;;;;;;4509376;28;21037;-62
2021/09/17 03:59:05;;;;;;;3.28;2.75;;;;;;;;;;4514980;28;20030;-64
2021/09/17 04:01:16;;;;;;;4.53;3.20;;;;;;;;;;4512197;28;20525;-62
2021/09/17 04:03:26;;;;;;;5.30;3.17;;;;;;;;;;4510723;28;20042;-62
2021/09/17 04:05:36;;;;;;;4.97;3.07;;;;;;;;;;4510776;28;20033;-62
2021/09/17 04:07:47;;;;;;;4.57;2.70;;;;;;;;;;4510056;28;20026;-61
2021/09/17 04:09:57;;;;;;;4.80;3.23;;;;;;;;;;4511305;28;20393;-62
2021/09/17 04:12:08;;;;;;;3.53;2.83;;;;;;;;;;4510526;28;23778;-62
2021/09/17 04:14:18;;;;;;;4.97;3.40;;;;;;;;;;4511694;28;20133;-63
2021/09/17 04:16:29;;;;;;;5.03;3.03;;;;;;;;;;4492409;28;20085;-62
2021/09/17 04:18:39;;;;;;;5.17;3.40;;;;;;;;;;4493821;28;20023;-62
2021/09/17 04:20:50;;;;;;;3.90;3.20;;;;;;;;;;4510147;28;20056;-62
2021/09/17 04:23:00;;;;;;;4.20;3.13;;;;;;;;;;4499110;28;20038;-62
2021/09/17 04:25:11;;;;;;;4.23;3.27;;;;;;;;;;4511313;28;20045;-62
2021/09/17 04:27:22;;;;;;;5.10;3.50;;;;;;;;;;4513078;28;20033;-62
2021/09/17 04:29:32;;;;;;;4.83;2.80;;;;;;;;;;4480390;28;20099;-62
2021/09/17 04:31:43;;;;;;;4.27;2.83;;;;;;;;;;4512546;28;20276;-62
2021/09/17 04:33:53;;;;;;;4.47;3.40;;;;;;;;;;4477439;28;20489;-62
2021/09/17 04:36:04;;;;;;;4.87;3.23;;;;;;;;;;4501254;28;20042;-62
2021/09/17 04:38:14;;;;;;;3.47;3.03;;;;;;;;;;4475126;28;20069;-62
2021/09/17 04:40:25;;;;;;;3.87;2.90;;;;;;;;;;4514123;28;20104;-62
2021/09/17 04:42:35;;;;;;;3.87;3.03;;;;;;;;;;4513065;28;20140;-62
2021/09/17 04:44:46;;;;;;;4.83;2.73;;;;;;;;;;4511048;28;20672;-62
2021/09/17 04:46:56;;;;;;;5.10;3.60;;;;;;;;;;4510825;28;20088;-62
2021/09/17 04:49:07;;;;;;;4.03;3.10;;;;;;;;;;4511314;28;20813;-62
2021/09/17 04:51:17;;;;;;;5.27;3.33;;;;;;;;;;4475568;28;20282;-62
2021/09/17 04:53:27;;;;;;;4.77;3.20;;;;;;;;;;4512146;28;20042;-62
2021/09/17 04:55:39;;;;;;;4.33;2.93;;;;;;;;;;4512626;28;20072;-62
2021/09/17 04:57:49;;;;;;;3.63;3.08;;;;;;;;;;4484877;28;20109;-62
2021/09/17 05:00:00;;;;;;;4.37;3.50;;;;;;;;;;4500856;28;20038;-62
2021/09/17 05:02:10;;;;;;;4.53;3.03;;;;;;;;;;4512433;28;20557;-62
2021/09/17 05:04:20;;;;;;;4.83;3.50;;;;;;;;;;4510300;28;31338;-62
2021/09/17 05:06:31;;;;;;;4.83;3.43;;;;;;;;;;4494964;28;20041;-62
2021/09/17 05:08:42;;;;;;;5.47;3.75;;;;;;;;;;4511814;28;20034;-62
2021/09/17 05:10:52;;;;;;;5.47;3.83;;;;;;;;;;4512931;28;20080;-62
2021/09/17 05:13:03;;;;;;;4.90;3.57;;;;;;;;;;4500562;28;35091;-62
2021/09/17 05:15:13;;;;;;;4.80;3.57;;;;;;;;;;4511940;28;20037;-62
2021/09/17 05:17:24;;;;;;;5.23;3.87;;;;;;;;;;4504151;28;20026;-61
2021/09/17 05:19:34;;;;;;;4.50;3.53;;;;;;;;;;4511529;28;20033;-62
2021/09/17 05:21:45;;;;;;;4.63;3.70;;;;;;;;;;4493710;28;20644;-62
2021/09/17 05:23:55;;;;;;;5.43;3.50;;;;;;;;;;4476622;28;33703;-65
2021/09/17 05:26:06;;;;;;;4.93;3.97;;;;;;;;;;4511184;28;20034;-62
2021/09/17 05:28:17;;;;;;;5.15;3.92;;;;;;;;;;4500374;28;20033;-62
2021/09/17 05:30:27;;;;;;;5.00;3.97;;;;;;;;;;4506300;28;20085;-62
2021/09/17 05:32:38;;;;;;;5.93;4.40;;;;;;;;;;4514669;28;27392;-62
2021/09/17 05:34:48;;;;;;;6.73;4.37;;;;;;;;;;4515055;28;20037;-62
2021/09/17 05:36:59;;;;;;;7.20;4.57;;;;;;;;;;4513304;28;20041;-63
2021/09/17 05:39:09;;;;;;;6.27;4.33;;;;;;;;;;4514862;28;20034;-62
2021/09/17 05:41:20;;;;;;;5.80;4.53;;;;;;;;;;4514847;28;20030;-62
2021/09/17 05:43:30;;;;;;;7.47;4.90;;;;;;;;;;4501552;28;20034;-62
2021/09/17 05:45:41;;;;;;;7.47;5.00;;;;;;;;;;4515574;28;20620;-64
2021/09/17 05:47:51;;;;;;;7.23;5.10;;;;;;;;;;4503042;28;20045;-62
2021/09/17 05:50:02;;;;;;;9.37;5.37;;;;;;;;;;4513446;28;21130;-62
2021/09/17 05:52:13;;;;;;;8.20;5.63;;;;;;;;;;4515173;28;20041;-61
2021/09/17 05:54:23;;;;;;;7.53;5.07;;;;;;;;;;4506938;28;20073;-61
2021/09/17 05:56:34;;;;;;;7.80;5.50;;;;;;;;;;4515205;28;20068;-62
2021/09/17 05:58:44;;;;;;;7.60;5.50;;;;;;;;;;4516626;28;20525;-61
2021/09/17 06:00:54;;;;;;;7.27;5.47;;;;;;;;;;4514524;28;20116;-62
2021/09/17 06:03:05;;;;;;;7.77;5.63;;;;;;;;;;4497189;28;20526;-62
2021/09/17 06:05:15;;;;;;;7.17;5.53;;;;;;;;;;4514947;28;27554;-62
2021/09/17 06:07:26;;;;;;;7.73;5.93;;;;;;;;;;4514274;28;20040;-62
2021/09/17 06:09:37;;;;;;;7.72;5.63;;;;;;;;;;4513675;28;20044;-62
2021/09/17 06:11:47;;;;;;;7.20;5.50;;;;;;;;;;4514724;28;20792;-62
2021/09/17 06:13:58;;;;;;;7.60;5.50;;;;;;;;;;4513612;28;20082;-62
2021/09/17 06:16:08;;;;;;;8.00;5.77;;;;;;;;;;4503012;28;20128;-61
2021/09/17 06:18:19;;;;;;;8.20;6.00;;;;;;;;;;4496668;28;20042;-62
2021/09/17 06:20:30;;;;;;;7.13;5.45;;;;;;;;;;4513820;28;20026;-62
2021/09/17 06:22:43;;;;;;;7.47;6.10;;;;;;;;;;4503408;28;20054;-62
2021/09/17 06:24:53;;;;;;;8.50;6.25;;;;;;;;;;4503848;28;20088;-62
2021/09/17 06:27:04;;;;;;;6.93;4.83;;;;;;;;;;4513759;28;20050;-62
2021/09/17 06:29:14;;;;;;;4.77;3.40;;;;;;;;;;4494402;28;20038;-62
2021/09/17 06:31:25;;;;;;;8.47;6.37;;;;;;;;;;4513504;28;20045;-63
2021/09/17 06:33:36;;;;;;;3.25;2.08;;;;;;;;;;4513150;28;20065;-63
2021/09/17 06:35:46;;;;;;;9.07;6.43;;;;;;;;;;4513200;28;20045;-62
2021/09/17 06:37:57;;;;;;;8.93;6.80;;;;;;;;;;4512393;28;20032;-63
2021/09/17 06:40:07;;;;;;;9.33;7.07;;;;;;;;;;4494900;28;20489;-62
2021/09/17 06:42:18;;;;;;;9.60;7.10;;;;;;;;;;4513855;28;20046;-62
2021/09/17 06:44:29;;;;;;;10.23;7.47;;;;;;;;;;4514000;28;20061;-63
2021/09/17 06:46:40;;;;;;;8.93;7.03;;;;;;;;;;4518749;28;20033;-63
2021/09/17 06:48:50;;;;;;;9.20;6.37;;;;;;;;;;4512876;28;20033;-62
2021/09/17 06:51:01;;;;;;;9.00;6.80;;;;;;;;;;4514333;28;20045;-63
2021/09/17 06:53:12;;;;;;;10.52;7.65;;;;;;;;;;4513510;28;20038;-62
2021/09/17 06:55:29;;;;;;;10.03;7.73;;;;;;;;;;4510430;28;20034;-62
2021/09/17 06:57:48;;;;;;;10.95;7.88;;;;;;;;;;4503031;28;20042;-62
2021/09/17 06:59:59;;;;;;;10.75;7.90;;;;;;;;;;4502828;28;20038;-62
2021/09/17 07:02:10;;;;;;;10.70;7.57;;;;;;;;;;4514629;28;20050;-62
2021/09/17 07:04:21;;;;;;;10.77;7.88;;;;;;;;;;4515049;28;20552;-62
2021/09/17 07:06:33;;;;;;;10.10;7.73;;;;;;;;;;4515602;28;20087;-62
2021/09/17 07:08:43;;;;;;;;;;;;;;;;;;4515010;28;20687;-62
2021/09/17 07:10:53;;;;;;;10.57;7.53;;;;;;;;;;4513762;28;19921;-62
2021/09/17 07:13:04;;;;;;;10.80;8.33;;;;;;;;;;4502907;28;20120;-62
2021/09/17 07:15:16;;;;;;;11.00;8.57;;;;;;;;;;4515550;28;20101;-62
2021/09/17 07:17:27;;;;;;;11.02;8.73;;;;;;;;;;4514293;28;20655;-62
2021/09/17 07:19:38;;;;;;;;;;;;;;;;;;4488980;28;20035;-62
2021/09/17 07:21:48;;;;;;;13.32;8.93;;;;;;;;;;4513758;28;29974;-62
2021/09/17 07:23:59;;;;;;;11.53;9.00;;;;;;;;;;4514241;28;20083;-62
2021/09/17 07:26:09;;;;;;;10.70;8.70;;;;;;;;;;4506813;28;20132;-67
2021/09/17 07:28:20;;;;;;;12.50;9.47;;;;;;;;;;4516229;28;20397;-73
2021/09/17 07:30:31;;;;;;;13.70;9.40;;;;;;;;;;4473165;28;20070;-69
2021/09/17 07:32:42;;;;;;;13.38;10.45;;;;;;;;;;4503154;28;20038;-74
2021/09/17 07:34:53;;;;;;;12.88;9.65;;;;;;;;;;4514464;28;20034;-69
2021/09/17 07:37:04;;;;;;;14.55;10.60;;;;;;;;;;4513097;28;20052;-65
2021/09/17 07:39:15;;;;;;;15.90;11.33;;;;;;;;;;4513605;28;20037;-62
2021/09/17 07:41:25;;;;;;;17.87;13.00;;;;;;;;;;4512598;28;20044;-62
2021/09/17 07:43:35;;;;;;;18.87;13.00;;;;;;;;;;4512812;28;20030;-62
2021/09/17 07:45:46;;;;;;;19.67;13.47;;;;;;;;;;4512793;28;33473;-62
2021/09/17 07:47:56;;;;;;;18.97;13.30;;;;;;;;;;4513205;28;21431;-63
2021/09/17 07:50:09;;;;;;;17.80;13.13;;;;;;;;;;4514957;28;20042;-62
2021/09/17 07:52:20;;;;;;;19.92;13.20;;;;;;;;;;4495328;28;20030;-62
2021/09/17 07:54:30;;;;;;;16.53;12.13;;;;;;;;;;4512132;28;20497;-63
2021/09/17 07:56:40;;;;;;;18.83;13.37;;;;;;;;;;4513802;28;20089;-62
2021/09/17 07:58:51;;;;;;;17.23;12.47;;;;;;;;;;4495044;28;20038;-63
2021/09/17 08:01:01;;;;;;;17.73;12.70;;;;;;;;;;4512261;28;20335;-62
2021/09/17 08:03:12;;;;;;;16.47;11.97;;;;;;;;;;4500260;28;20046;-62
2021/09/17 08:05:22;;;;;;;18.13;13.30;;;;;;;;;;4512248;28;20474;-62
2021/09/17 08:07:33;;;;;;;19.10;13.50;;;;;;;;;;4494817;28;20042;-62
2021/09/17 08:09:43;;;;;;;19.67;14.10;;;;;;;;;;4495406;28;22238;-62
2021/09/17 08:11:53;;;;;;;19.77;14.03;;;;;;;;;;4510744;28;30326;-62
2021/09/17 08:14:04;;;;;;;19.17;13.07;;;;;;;;;;4512101;28;20037;-62
2021/09/17 08:16:15;;;;;;;18.63;12.67;;;;;;;;;;4512607;28;20590;-62
2021/09/17 08:18:25;;;;;;;16.93;13.07;;;;;;;;;;4510792;28;20037;-63
2021/09/17 08:20:37;;;;;;;18.77;13.03;;;;;;;;;;4512909;28;20042;-63
2021/09/17 08:22:48;;;;;;;18.50;13.15;;;;;;;;;;4512009;28;20116;-63
2021/09/17 08:24:58;;;;;;;18.93;13.80;;;;;;;;;;4513190;28;20486;-62
2021/09/17 08:27:09;;;;;;;17.93;12.70;;;;;;;;;;4500086;28;20040;-63
2021/09/17 08:29:19;;;;;;;16.83;12.40;;;;;;;;;;4512802;28;20038;-63
2021/09/17 08:31:31;;;;;;;15.98;11.40;;;;;;;;;;4498948;28;20041;-62
2021/09/17 08:33:43;;;;;;;16.50;12.52;;;;;;;;;;4511206;28;20064;-62
2021/09/17 08:35:53;;;;;;;16.27;11.77;;;;;;;;;;4510730;28;20074;-62
2021/09/17 08:38:04;;;;;;;18.02;12.70;;;;;;;;;;4513074;28;20069;-62
2021/09/17 08:40:16;;;;;;;17.95;12.88;;;;;;;;;;4510705;28;20033;-62
2021/09/17 08:42:28;;;;;;;16.75;12.63;;;;;;;;;;4493042;28;20046;-62
2021/09/17 08:44:39;;;;;;;18.70;13.02;;;;;;;;;;4511033;28;20041;-63
2021/09/17 08:46:49;;;;;;;18.50;13.07;;;;;;;;;;4516203;28;20025;-62
2021/09/17 08:49:02;;;;;;;16.52;12.30;;;;;;;;;;4512899;28;20030;-62
2021/09/17 08:51:13;;;;;;;16.48;12.20;;;;;;;;;;4494217;28;20077;-62
2021/09/17 08:53:24;;;;;;;17.27;12.90;;;;;;;;;;4512498;28;25907;-62
2021/09/17 08:55:35;;;;;;;17.67;12.63;;;;;;;;;;4500569;28;21088;-63
2021/09/17 08:57:49;;;;;;;16.93;12.40;;;;;;;;;;4492938;28;20037;-62
2021/09/17 09:00:00;;;;;;;17.85;13.13;;;;;;;;;;4499551;28;20103;-63
2021/09/17 09:02:25;;;;;;;17.17;12.75;;;;;;;;;;4510192;28;20045;-62
2021/09/17 09:04:41;;;;;;;15.80;11.43;;;;;;;;;;4484291;28;20088;-62
2021/09/17 09:06:51;;;;;;;17.23;12.55;;;;;;;;;;4513146;28;20030;-62
2021/09/17 09:09:03;;;;;;;15.60;11.17;;;;;;;;;;4502769;28;37496;-62
2021/09/17 09:11:20;;;;;;;;;;;;;;;;;;4513273;28;20033;-62
2021/09/17 09:13:30;;;;;;;18.35;13.38;;;;;;;;;;4515230;28;19917;-62
2021/09/17 09:15:41;;;;;;;17.37;13.30;;;;;;;;;;4514272;28;20029;-62
2021/09/17 09:18:13;;;;;;;17.17;12.05;;;;;;;;;;4513147;28;20045;-62
2021/09/17 09:20:30;;;;;;;17.20;12.45;;;;;;;;;;4486282;28;20062;-62
2021/09/17 09:22:41;;;;;;;15.63;11.80;;;;;;;;;;4513780;28;20160;-62
2021/09/17 09:24:53;;;;;;;15.93;11.93;;;;;;;;;;4502425;28;20029;-62
2021/09/17 09:27:15;;;;;;;15.63;11.60;;;;;;;;;;4512351;28;20572;-62
2021/09/17 09:29:29;;;;;;;;;;;;;;;;;;4504287;28;20129;-62
2021/09/17 09:31:41;;;;;;;14.93;11.80;;;;;;;;;;4514776;28;20503;-62
2021/09/17 09:33:53;;;;;;;15.88;11.63;;;;;;;;;;4515868;28;20084;-62
2021/09/17 09:36:18;;;;;;;14.20;10.45;;;;;;;;;;4514762;28;20117;-62
2021/09/17 09:38:30;;;;;;;16.67;11.38;;;;;;;;;;4503317;28;20608;-62
2021/09/17 09:40:40;;;;;;;13.98;10.52;;;;;;;;;;4481134;28;20031;-62
2021/09/17 09:42:50;;;;;;;14.33;10.10;;;;;;;;;;4511407;28;20053;-62
2021/09/17 09:45:10;;;;;;;13.80;10.43;;;;;;;;;;4513441;28;31109;-62
2021/09/17 09:47:31;;;;;;;14.57;10.63;;;;;;;;;;4502934;28;20542;-62
2021/09/17 09:49:47;;;;;;;14.05;10.38;;;;;;;;;;4514968;28;20055;-62
2021/09/17 09:52:00;;;;;;;13.80;10.10;;;;;;;;;;4515546;28;20037;-62
2021/09/17 09:54:11;;;;;;;14.60;10.32;;;;;;;;;;4496034;28;20682;-63
2021/09/17 09:56:21;;;;;;;14.68;10.90;;;;;;;;;;4476286;28;20696;-63
2021/09/17 09:58:32;;;;;;;14.27;10.35;;;;;;;;;;4512807;28;20040;-62
2021/09/17 10:00:42;;;;;;;12.73;9.50;;;;;;;;;;4503629;28;20034;-62
2021/09/17 10:02:55;;;;;;;13.30;10.03;;;;;;;;;;4513006;28;20092;-62
2021/09/17 10:05:08;;;;;;;13.68;9.93;;;;;;;;;;4514949;28;20979;-62
2021/09/17 10:07:20;;;;;;;14.77;9.95;;;;;;;;;;4519888;28;20045;-62
2021/09/17 10:09:32;;;;;;;13.73;9.77;;;;;;;;;;4493244;28;20110;-62
2021/09/17 10:11:43;;;;;;;13.18;9.60;;;;;;;;;;4513597;28;20021;-62
2021/09/17 10:13:57;;;;;;;13.80;9.33;;;;;;;;;;4513735;28;20037;-62
2021/09/17 10:16:07;;;;;;;12.15;8.65;;;;;;;;;;4514670;28;20038;-62
2021/09/17 10:18:18;;;;;;;12.03;4.03;;;;;;;;;;4519106;28;20038;-63
2021/09/17 10:20:38;;;;;;;8.17;5.60;;;;;;;;;;4509428;28;20030;-62
2021/09/17 10:22:50;;;;;;;8.43;3.60;;;;;;;;;;4513735;28;20052;-62
2021/09/17 10:25:22;;;;;;;7.38;3.58;;;;;;;;;;4495762;28;20079;-62
2021/09/17 10:27:32;;;;;;;;;;;;;;;;;;4515519;28;20073;-62
2021/09/17 10:29:46;;;;;;;13.20;9.35;;;;;;;;;;4514079;28;19940;-62
2021/09/17 10:31:59;;;;;;;7.35;3.20;;;;;;;;;;4496484;28;20165;-62
2021/09/17 10:34:36;;;;;;;11.48;8.27;;;;;;;;;;4479578;28;20093;-62
2021/09/17 10:36:46;;;;;;;9.02;3.47;;;;;;;;;;4513298;28;20064;-62
2021/09/17 10:39:13;;;;;;;6.47;3.47;;;;;;;;;;4513623;28;26772;-62
2021/09/17 10:41:25;;;;;;;8.52;3.50;;;;;;;;;;4513600;28;20041;-63
2021/09/17 10:43:38;;;;;;;7.10;3.45;;;;;;;;;;4502355;28;20049;-63
2021/09/17 10:45:57;;;;;;;9.02;3.33;;;;;;;;;;4502810;28;20444;-61
2021/09/17 10:48:08;;;;;;;10.48;3.88;;;;;;;;;;4513154;28;20021;-61
2021/09/17 10:50:18;;;;;;;7.45;3.10;;;;;;;;;;4496330;28;20045;-61
2021/09/17 10:52:40;;;;;;;10.50;3.50;;;;;;;;;;4513534;28;20488;-61
2021/09/17 10:54:54;;;;;;;6.43;3.10;;;;;;;;;;4513145;28;20572;-61
2021/09/17 10:57:06;;;;;;;8.05;2.97;;;;;;;;;;4511571;28;20034;-61
2021/09/17 10:59:28;;;;;;;8.02;3.10;;;;;;;;;;4513251;28;21044;-61
2021/09/17 11:01:53;;;;;;;;;;;;;;;;;;4513543;28;20033;-61
2021/09/17 11:04:04;;;;;;;8.68;3.08;;;;;;;;;;4502787;28;19917;-61
2021/09/17 11:06:29;;;;;;;7.43;3.10;;;;;;;;;;4511950;28;20034;-61
2021/09/17 11:08:47;;;;;;;7.60;3.30;;;;;;;;;;4513089;28;20033;-61
2021/09/17 11:11:29;;;;;;;8.07;2.78;;;;;;;;;;4513750;28;20069;-61
2021/09/17 11:13:45;;;;;;;7.35;2.97;;;;;;;;;;4510684;28;20033;-61
2021/09/17 11:15:56;;;;;;;6.45;3.20;;;;;;;;;;4513640;28;20037;-61
2021/09/17 11:18:15;;;;;;;6.80;3.00;;;;;;;;;;4493397;28;25115;-61
2021/09/17 11:20:28;;;;;;;9.23;2.97;;;;;;;;;;4512635;28;20056;-61
2021/09/17 11:22:51;;;;;;;6.32;2.90;;;;;;;;;;4513965;28;20041;-61
2021/09/17 11:25:05;;;;;;;6.72;2.88;;;;;;;;;;4512288;28;20764;-61
2021/09/17 11:27:16;;;;;;;8.27;3.28;;;;;;;;;;4512140;28;20103;-61
2021/09/17 11:29:26;;;;;;;6.37;2.90;;;;;;;;;;4513048;28;20119;-61
2021/09/17 11:31:42;;;;;;;6.83;2.83;;;;;;;;;;4513427;28;20429;-61
2021/09/17 11:33:56;;;;;;;7.80;3.30;;;;;;;;;;4512722;28;20124;-61
2021/09/17 11:36:08;;;;;;;6.50;2.80;;;;;;;;;;4517854;28;20109;-61
2021/09/17 11:38:22;;;;;;;7.82;2.67;;;;;;;;;;4512451;28;20033;-61
2021/09/17 11:40:32;;;;;;;5.63;2.53;;;;;;;;;;4512844;28;20036;-61
2021/09/17 11:42:44;;;;;;;7.10;2.90;;;;;;;;;;4513896;28;20054;-61
2021/09/17 11:44:54;;;;;;;5.20;2.47;;;;;;;;;;4501427;28;20066;-61
2021/09/17 11:47:11;;;;;;;6.47;3.08;;;;;;;;;;4512580;28;20076;-61
2021/09/17 11:49:28;;;;;;;6.57;3.03;;;;;;;;;;4513803;28;20493;-61
2021/09/17 11:51:38;;;;;;;7.38;2.83;;;;;;;;;;4501234;28;20022;-63
2021/09/17 11:53:49;;;;;;;6.57;3.40;;;;;;;;;;4513721;28;27231;-63
2021/09/17 11:56:06;;;;;;;7.30;2.80;;;;;;;;;;4511796;28;20042;-62
2021/09/17 11:58:17;;;;;;;6.43;2.85;;;;;;;;;;4512866;28;20029;-61
2021/09/17 12:00:29;;;;;;;7.90;3.00;;;;;;;;;;4512023;28;20115;-61
2021/09/17 12:02:40;;;;;;;7.18;3.17;;;;;;;;;;4500488;28;20041;-61
2021/09/17 12:04:58;;;;;;;7.28;3.10;;;;;;;;;;4512658;28;20425;-61
2021/09/17 12:07:10;;;;;;;5.68;2.97;;;;;;;;;;4500850;28;20612;-61
2021/09/17 12:09:20;;;;;;;6.95;3.08;;;;;;;;;;4511347;28;20025;-61
2021/09/17 12:11:30;;;;;;;6.57;3.00;;;;;;;;;;4512057;28;20498;-61
2021/09/17 12:13:43;;;;;;;6.00;2.90;;;;;;;;;;4511985;28;20071;-61
2021/09/17 12:15:57;;;;;;;5.05;2.63;;;;;;;;;;4511130;28;20042;-61
2021/09/17 12:18:09;;;;;;;7.03;2.95;;;;;;;;;;4512360;28;20065;-61
2021/09/17 12:20:20;;;;;;;7.47;3.10;;;;;;;;;;4516391;28;20107;-61
2021/09/17 12:22:33;;;;;;;6.03;2.63;;;;;;;;;;4512635;28;20441;-61
2021/09/17 12:24:45;;;;;;;6.63;3.28;;;;;;;;;;4513217;28;20660;-61
2021/09/17 12:26:59;;;;;;;7.07;3.22;;;;;;;;;;4515692;28;20040;-61
2021/09/17 12:29:10;;;;;;;6.93;3.22;;;;;;;;;;4511522;28;20133;-61
2021/09/17 12:31:33;;;;;;;7.07;3.17;;;;;;;;;;4493802;28;20034;-61
2021/09/17 12:33:44;;;;;;;6.47;2.80;;;;;;;;;;4502713;28;20104;-61
2021/09/17 12:35:56;;;;;;;6.97;3.03;;;;;;;;;;4514001;28;20096;-61
2021/09/17 12:38:07;;;;;;;5.70;3.05;;;;;;;;;;4512976;28;20042;-61
2021/09/17 12:40:20;;;;;;;5.82;2.92;;;;;;;;;;4504251;28;20038;-61
2021/09/17 12:42:30;;;;;;;5.78;2.50;;;;;;;;;;4516311;28;20564;-61
2021/09/17 12:44:42;;;;;;;6.07;2.80;;;;;;;;;;4503696;28;20037;-61
2021/09/17 12:46:59;;;;;;;4.78;2.78;;;;;;;;;;4504205;28;20837;-61
2021/09/17 12:49:13;;;;;;;6.78;2.88;;;;;;;;;;4514802;28;30193;-61
2021/09/17 12:51:28;;;;;;;6.03;2.75;;;;;;;;;;4503867;28;20069;-61
2021/09/17 12:53:39;;;;;;;5.70;2.88;;;;;;;;;;4503876;28;20546;-63
2021/09/17 12:56:07;;;;;;;5.88;2.58;;;;;;;;;;4504219;28;20030;-63
2021/09/17 12:58:19;;;;;;;5.65;2.80;;;;;;;;;;4515984;28;20029;-61
2021/09/17 13:00:50;;;;;;;5.43;2.70;;;;;;;;;;4515734;28;20041;-61
2021/09/17 13:03:04;;;;;;;4.90;2.50;;;;;;;;;;4505004;28;20120;-62
2021/09/17 13:05:15;;;;;;;6.28;2.85;;;;;;;;;;4515562;28;20812;-61
2021/09/17 13:07:25;;;;;;;6.45;2.90;;;;;;;;;;4499965;28;20077;-61